sensor_id;sensor_type;location;lat;lon;timestamp;P1;durP1;ratioP1;P2;durP2;ratioP2
52942;SDS011;38809;53.300;6.614;2022-12-19T00:03:44;28.83;;;15.02;;
52942;SDS011;38809;53.300;6.614;2022-12-19T00:06:12;29.08;;;16.42;;
52942;SDS011;38809;53.300;6.614;2022-12-19T00:11:05;27.80;;;14.52;;
52942;SDS011;38809;53.300;6.614;2022-12-19T00:13:31;30.85;;;17.83;;
52942;SDS011;38809;53.300;6.614;2022-12-19T00:16:01;30.42;;;17.33;;
52942;SDS011;38809;53.300;6.614;2022-12-19T00:18:28;31.17;;;16.98;;
52942;SDS011;38809;53.300;6.614;2022-12-19T00:20:55;31.00;;;15.60;;
52942;SDS011;38809;53.300;6.614;2022-12-19T00:23:27;32.78;;;17.25;;
52942;SDS011;38809;53.300;6.614;2022-12-19T00:25:54;29.33;;;15.52;;
52942;SDS011;38809;53.300;6.614;2022-12-19T00:28:20;28.10;;;15.77;;
52942;SDS011;38809;53.300;6.614;2022-12-19T00:30:46;29.17;;;16.42;;
52942;SDS011;38809;53.300;6.614;2022-12-19T00:33:11;30.75;;;18.00;;
52942;SDS011;38809;53.300;6.614;2022-12-19T00:35:37;30.60;;;16.63;;
52942;SDS011;38809;53.300;6.614;2022-12-19T00:38:03;28.77;;;17.03;;
52942;SDS011;38809;53.300;6.614;2022-12-19T00:40:29;29.67;;;17.17;;
52942;SDS011;38809;53.300;6.614;2022-12-19T00:42:54;33.20;;;17.27;;
52942;SDS011;38809;53.300;6.614;2022-12-19T00:45:20;29.83;;;16.40;;
52942;SDS011;38809;53.300;6.614;2022-12-19T00:47:46;29.60;;;16.52;;
52942;SDS011;38809;53.300;6.614;2022-12-19T00:50:12;29.10;;;16.17;;
52942;SDS011;38809;53.300;6.614;2022-12-19T00:52:37;33.20;;;17.07;;
52942;SDS011;38809;53.300;6.614;2022-12-19T00:55:03;32.85;;;16.75;;
52942;SDS011;38809;53.300;6.614;2022-12-19T00:57:29;31.85;;;17.23;;
52942;SDS011;38809;53.300;6.614;2022-12-19T00:59:55;30.77;;;17.05;;
52942;SDS011;38809;53.300;6.614;2022-12-19T01:02:21;36.60;;;17.60;;
52942;SDS011;38809;53.300;6.614;2022-12-19T01:04:46;28.35;;;15.90;;
52942;SDS011;38809;53.300;6.614;2022-12-19T01:07:12;33.73;;;17.23;;
52942;SDS011;38809;53.300;6.614;2022-12-19T01:09:38;31.63;;;16.03;;
52942;SDS011;38809;53.300;6.614;2022-12-19T01:12:04;32.22;;;17.63;;
52942;SDS011;38809;53.300;6.614;2022-12-19T01:14:51;29.77;;;16.52;;
52942;SDS011;38809;53.300;6.614;2022-12-19T01:17:18;33.63;;;16.90;;
52942;SDS011;38809;53.300;6.614;2022-12-19T01:19:43;30.90;;;17.10;;
52942;SDS011;38809;53.300;6.614;2022-12-19T01:22:09;30.07;;;18.30;;
52942;SDS011;38809;53.300;6.614;2022-12-19T01:24:36;29.05;;;15.88;;
52942;SDS011;38809;53.300;6.614;2022-12-19T01:27:02;31.47;;;18.47;;
52942;SDS011;38809;53.300;6.614;2022-12-19T01:29:27;31.70;;;17.40;;
52942;SDS011;38809;53.300;6.614;2022-12-19T01:31:53;30.67;;;17.40;;
52942;SDS011;38809;53.300;6.614;2022-12-19T01:34:19;30.23;;;17.10;;
52942;SDS011;38809;53.300;6.614;2022-12-19T01:36:44;30.87;;;17.43;;
52942;SDS011;38809;53.300;6.614;2022-12-19T01:39:10;31.70;;;17.60;;
52942;SDS011;38809;53.300;6.614;2022-12-19T01:41:36;32.27;;;18.93;;
52942;SDS011;38809;53.300;6.614;2022-12-19T01:44:03;30.13;;;17.35;;
52942;SDS011;38809;53.300;6.614;2022-12-19T01:46:34;33.80;;;17.63;;
52942;SDS011;38809;53.300;6.614;2022-12-19T01:49:21;32.17;;;16.98;;
52942;SDS011;38809;53.300;6.614;2022-12-19T01:51:56;29.40;;;16.17;;
52942;SDS011;38809;53.300;6.614;2022-12-19T01:54:26;29.92;;;16.50;;
52942;SDS011;38809;53.300;6.614;2022-12-19T01:56:56;33.13;;;18.02;;
52942;SDS011;38809;53.300;6.614;2022-12-19T01:59:33;32.08;;;17.48;;
52942;SDS011;38809;53.300;6.614;2022-12-19T02:02:09;34.53;;;18.42;;
52942;SDS011;38809;53.300;6.614;2022-12-19T02:04:43;33.85;;;18.65;;
52942;SDS011;38809;53.300;6.614;2022-12-19T02:07:10;29.40;;;16.35;;
52942;SDS011;38809;53.300;6.614;2022-12-19T02:09:36;29.08;;;16.55;;
52942;SDS011;38809;53.300;6.614;2022-12-19T02:12:02;37.40;;;18.67;;
52942;SDS011;38809;53.300;6.614;2022-12-19T02:16:58;33.17;;;17.33;;
52942;SDS011;38809;53.300;6.614;2022-12-19T02:22:25;33.97;;;19.15;;
52942;SDS011;38809;53.300;6.614;2022-12-19T02:25:41;33.30;;;17.73;;
52942;SDS011;38809;53.300;6.614;2022-12-19T02:28:25;35.80;;;18.48;;
52942;SDS011;38809;53.300;6.614;2022-12-19T02:33:55;33.13;;;17.88;;
52942;SDS011;38809;53.300;6.614;2022-12-19T02:36:59;33.78;;;18.60;;
52942;SDS011;38809;53.300;6.614;2022-12-19T02:39:34;36.55;;;18.58;;
52942;SDS011;38809;53.300;6.614;2022-12-19T02:42:11;32.58;;;17.83;;
52942;SDS011;38809;53.300;6.614;2022-12-19T02:44:44;30.98;;;18.00;;
52942;SDS011;38809;53.300;6.614;2022-12-19T02:47:13;35.72;;;18.45;;
52942;SDS011;38809;53.300;6.614;2022-12-19T02:49:39;33.78;;;19.23;;
52942;SDS011;38809;53.300;6.614;2022-12-19T02:54:42;33.15;;;18.35;;
52942;SDS011;38809;53.300;6.614;2022-12-19T02:57:13;33.97;;;18.67;;
52942;SDS011;38809;53.300;6.614;2022-12-19T03:00:01;36.92;;;18.42;;
52942;SDS011;38809;53.300;6.614;2022-12-19T03:05:44;33.42;;;17.67;;
52942;SDS011;38809;53.300;6.614;2022-12-19T03:11:11;35.30;;;18.10;;
52942;SDS011;38809;53.300;6.614;2022-12-19T03:16:05;33.50;;;17.87;;
52942;SDS011;38809;53.300;6.614;2022-12-19T03:18:34;35.40;;;18.75;;
52942;SDS011;38809;53.300;6.614;2022-12-19T03:23:33;35.15;;;17.70;;
52942;SDS011;38809;53.300;6.614;2022-12-19T03:26:02;32.63;;;18.63;;
52942;SDS011;38809;53.300;6.614;2022-12-19T03:28:37;39.08;;;19.77;;
52942;SDS011;38809;53.300;6.614;2022-12-19T03:31:20;38.17;;;19.23;;
52942;SDS011;38809;53.300;6.614;2022-12-19T03:33:49;38.08;;;18.85;;
52942;SDS011;38809;53.300;6.614;2022-12-19T03:36:24;38.42;;;19.45;;
52942;SDS011;38809;53.300;6.614;2022-12-19T03:38:54;34.60;;;19.63;;
52942;SDS011;38809;53.300;6.614;2022-12-19T03:41:21;34.58;;;18.35;;
52942;SDS011;38809;53.300;6.614;2022-12-19T03:44:09;36.42;;;18.42;;
52942;SDS011;38809;53.300;6.614;2022-12-19T03:46:42;34.38;;;18.73;;
52942;SDS011;38809;53.300;6.614;2022-12-19T03:49:13;33.78;;;17.75;;
52942;SDS011;38809;53.300;6.614;2022-12-19T03:52:23;33.08;;;17.55;;
52942;SDS011;38809;53.300;6.614;2022-12-19T03:54:42;38.45;;;18.75;;
52942;SDS011;38809;53.300;6.614;2022-12-19T03:57:19;37.42;;;18.75;;
52942;SDS011;38809;53.300;6.614;2022-12-19T04:00:08;39.45;;;19.48;;
52942;SDS011;38809;53.300;6.614;2022-12-19T04:02:37;36.35;;;20.48;;
52942;SDS011;38809;53.300;6.614;2022-12-19T04:05:06;40.03;;;19.30;;
52942;SDS011;38809;53.300;6.614;2022-12-19T04:07:35;36.58;;;19.98;;
52942;SDS011;38809;53.300;6.614;2022-12-19T04:10:07;37.33;;;20.35;;
52942;SDS011;38809;53.300;6.614;2022-12-19T04:12:37;37.95;;;19.15;;
52942;SDS011;38809;53.300;6.614;2022-12-19T04:15:06;37.33;;;20.50;;
52942;SDS011;38809;53.300;6.614;2022-12-19T04:17:50;42.08;;;20.77;;
52942;SDS011;38809;53.300;6.614;2022-12-19T04:20:20;39.23;;;21.43;;
52942;SDS011;38809;53.300;6.614;2022-12-19T04:22:54;39.40;;;21.20;;
52942;SDS011;38809;53.300;6.614;2022-12-19T04:25:30;40.53;;;20.83;;
52942;SDS011;38809;53.300;6.614;2022-12-19T04:28:01;40.60;;;23.00;;
52942;SDS011;38809;53.300;6.614;2022-12-19T04:30:30;41.70;;;21.63;;
52942;SDS011;38809;53.300;6.614;2022-12-19T04:32:57;47.35;;;23.52;;
52942;SDS011;38809;53.300;6.614;2022-12-19T04:35:23;40.85;;;21.85;;
52942;SDS011;38809;53.300;6.614;2022-12-19T04:37:50;44.10;;;22.70;;
52942;SDS011;38809;53.300;6.614;2022-12-19T04:40:16;44.90;;;23.58;;
52942;SDS011;38809;53.300;6.614;2022-12-19T04:42:42;40.42;;;21.85;;
52942;SDS011;38809;53.300;6.614;2022-12-19T04:45:08;43.13;;;23.23;;
52942;SDS011;38809;53.300;6.614;2022-12-19T04:47:34;41.47;;;22.20;;
52942;SDS011;38809;53.300;6.614;2022-12-19T04:50:00;47.23;;;24.57;;
52942;SDS011;38809;53.300;6.614;2022-12-19T04:52:25;46.40;;;24.17;;
52942;SDS011;38809;53.300;6.614;2022-12-19T04:54:51;41.53;;;21.73;;
52942;SDS011;38809;53.300;6.614;2022-12-19T04:57:17;44.57;;;22.23;;
52942;SDS011;38809;53.300;6.614;2022-12-19T04:59:42;41.17;;;20.87;;
52942;SDS011;38809;53.300;6.614;2022-12-19T05:02:08;42.20;;;21.17;;
52942;SDS011;38809;53.300;6.614;2022-12-19T05:04:34;44.83;;;23.43;;
52942;SDS011;38809;53.300;6.614;2022-12-19T05:06:59;42.57;;;24.93;;
52942;SDS011;38809;53.300;6.614;2022-12-19T05:09:25;46.10;;;25.13;;
52942;SDS011;38809;53.300;6.614;2022-12-19T05:11:51;37.70;;;20.33;;
52942;SDS011;38809;53.300;6.614;2022-12-19T05:14:16;42.63;;;23.30;;
52942;SDS011;38809;53.300;6.614;2022-12-19T05:16:42;41.17;;;23.63;;
52942;SDS011;38809;53.300;6.614;2022-12-19T05:19:08;44.53;;;24.73;;
52942;SDS011;38809;53.300;6.614;2022-12-19T05:21:33;47.90;;;25.93;;
52942;SDS011;38809;53.300;6.614;2022-12-19T05:23:59;43.53;;;25.20;;
52942;SDS011;38809;53.300;6.614;2022-12-19T05:26:25;44.90;;;23.03;;
52942;SDS011;38809;53.300;6.614;2022-12-19T05:28:50;40.40;;;22.27;;
52942;SDS011;38809;53.300;6.614;2022-12-19T05:31:18;49.63;;;24.83;;
52942;SDS011;38809;53.300;6.614;2022-12-19T05:33:44;41.20;;;23.60;;
52942;SDS011;38809;53.300;6.614;2022-12-19T05:36:12;41.63;;;23.05;;
52942;SDS011;38809;53.300;6.614;2022-12-19T05:38:38;47.03;;;24.55;;
52942;SDS011;38809;53.300;6.614;2022-12-19T05:41:05;43.40;;;22.75;;
52942;SDS011;38809;53.300;6.614;2022-12-19T05:43:52;42.97;;;21.73;;
52942;SDS011;38809;53.300;6.614;2022-12-19T05:46:19;40.17;;;22.95;;
52942;SDS011;38809;53.300;6.614;2022-12-19T05:48:45;42.15;;;23.38;;
52942;SDS011;38809;53.300;6.614;2022-12-19T05:51:11;40.45;;;23.30;;
52942;SDS011;38809;53.300;6.614;2022-12-19T05:53:37;41.28;;;23.48;;
52942;SDS011;38809;53.300;6.614;2022-12-19T05:58:34;35.92;;;21.15;;
52942;SDS011;38809;53.300;6.614;2022-12-19T06:03:27;42.23;;;21.10;;
52942;SDS011;38809;53.300;6.614;2022-12-19T06:05:53;36.60;;;20.15;;
52942;SDS011;38809;53.300;6.614;2022-12-19T06:08:19;39.17;;;21.33;;
52942;SDS011;38809;53.300;6.614;2022-12-19T06:10:44;37.37;;;19.73;;
52942;SDS011;38809;53.300;6.614;2022-12-19T06:13:10;33.00;;;18.40;;
52942;SDS011;38809;53.300;6.614;2022-12-19T06:15:36;38.53;;;22.20;;
52942;SDS011;38809;53.300;6.614;2022-12-19T06:18:01;39.40;;;21.90;;
52942;SDS011;38809;53.300;6.614;2022-12-19T06:20:27;33.20;;;18.35;;
52942;SDS011;38809;53.300;6.614;2022-12-19T06:22:53;31.90;;;18.60;;
52942;SDS011;38809;53.300;6.614;2022-12-19T06:25:19;40.03;;;19.60;;
52942;SDS011;38809;53.300;6.614;2022-12-19T06:27:44;34.63;;;19.20;;
52942;SDS011;38809;53.300;6.614;2022-12-19T06:30:10;33.43;;;18.20;;
52942;SDS011;38809;53.300;6.614;2022-12-19T06:32:36;30.02;;;17.50;;
52942;SDS011;38809;53.300;6.614;2022-12-19T06:35:03;29.07;;;17.30;;
52942;SDS011;38809;53.300;6.614;2022-12-19T06:37:29;25.75;;;15.45;;
52942;SDS011;38809;53.300;6.614;2022-12-19T06:39:55;31.63;;;17.87;;
52942;SDS011;38809;53.300;6.614;2022-12-19T06:42:20;29.07;;;15.83;;
52942;SDS011;38809;53.300;6.614;2022-12-19T06:44:49;25.48;;;15.63;;
52942;SDS011;38809;53.300;6.614;2022-12-19T06:47:16;29.73;;;16.40;;
52942;SDS011;38809;53.300;6.614;2022-12-19T06:49:42;26.95;;;17.45;;
52942;SDS011;38809;53.300;6.614;2022-12-19T06:52:08;31.90;;;18.10;;
52942;SDS011;38809;53.300;6.614;2022-12-19T06:54:33;28.47;;;17.00;;
52942;SDS011;38809;53.300;6.614;2022-12-19T06:56:59;24.43;;;15.10;;
52942;SDS011;38809;53.300;6.614;2022-12-19T06:59:25;32.38;;;17.95;;
52942;SDS011;38809;53.300;6.614;2022-12-19T07:01:56;29.88;;;15.60;;
52942;SDS011;38809;53.300;6.614;2022-12-19T07:04:41;27.88;;;15.63;;
52942;SDS011;38809;53.300;6.614;2022-12-19T07:07:11;28.13;;;14.52;;
52942;SDS011;38809;53.300;6.614;2022-12-19T07:09:36;23.80;;;14.60;;
52942;SDS011;38809;53.300;6.614;2022-12-19T07:12:02;25.43;;;13.80;;
52942;SDS011;38809;53.300;6.614;2022-12-19T07:14:31;21.08;;;13.68;;
52942;SDS011;38809;53.300;6.614;2022-12-19T07:16:57;25.10;;;13.63;;
52942;SDS011;38809;53.300;6.614;2022-12-19T07:19:25;25.17;;;15.07;;
52942;SDS011;38809;53.300;6.614;2022-12-19T07:21:53;24.40;;;13.85;;
52942;SDS011;38809;53.300;6.614;2022-12-19T07:24:19;23.92;;;14.13;;
52942;SDS011;38809;53.300;6.614;2022-12-19T07:26:45;24.50;;;13.10;;
52942;SDS011;38809;53.300;6.614;2022-12-19T07:29:11;22.63;;;12.83;;
52942;SDS011;38809;53.300;6.614;2022-12-19T07:31:37;21.35;;;11.35;;
52942;SDS011;38809;53.300;6.614;2022-12-19T07:34:03;20.53;;;12.60;;
52942;SDS011;38809;53.300;6.614;2022-12-19T07:36:28;20.98;;;12.20;;
52942;SDS011;38809;53.300;6.614;2022-12-19T07:38:54;18.80;;;12.23;;
52942;SDS011;38809;53.300;6.614;2022-12-19T07:41:20;18.90;;;12.00;;
52942;SDS011;38809;53.300;6.614;2022-12-19T07:43:45;18.33;;;10.97;;
52942;SDS011;38809;53.300;6.614;2022-12-19T07:46:11;19.67;;;11.53;;
52942;SDS011;38809;53.300;6.614;2022-12-19T07:48:37;21.35;;;12.25;;
52942;SDS011;38809;53.300;6.614;2022-12-19T07:51:03;18.17;;;11.60;;
52942;SDS011;38809;53.300;6.614;2022-12-19T07:53:29;19.52;;;11.93;;
52942;SDS011;38809;53.300;6.614;2022-12-19T07:55:55;19.63;;;11.48;;
52942;SDS011;38809;53.300;6.614;2022-12-19T07:58:21;18.13;;;10.93;;
52942;SDS011;38809;53.300;6.614;2022-12-19T08:00:53;18.87;;;11.90;;
52942;SDS011;38809;53.300;6.614;2022-12-19T08:03:23;17.77;;;11.03;;
52942;SDS011;38809;53.300;6.614;2022-12-19T08:05:49;18.35;;;10.85;;
52942;SDS011;38809;53.300;6.614;2022-12-19T08:08:15;18.23;;;11.50;;
52942;SDS011;38809;53.300;6.614;2022-12-19T08:10:41;17.60;;;11.15;;
52942;SDS011;38809;53.300;6.614;2022-12-19T08:13:07;17.95;;;11.35;;
52942;SDS011;38809;53.300;6.614;2022-12-19T08:15:33;17.37;;;11.20;;
52942;SDS011;38809;53.300;6.614;2022-12-19T08:17:59;17.05;;;11.52;;
52942;SDS011;38809;53.300;6.614;2022-12-19T08:20:25;16.35;;;9.77;;
52942;SDS011;38809;53.300;6.614;2022-12-19T08:22:51;17.88;;;11.30;;
52942;SDS011;38809;53.300;6.614;2022-12-19T08:25:17;16.97;;;10.73;;
52942;SDS011;38809;53.300;6.614;2022-12-19T08:27:42;16.40;;;10.47;;
52942;SDS011;38809;53.300;6.614;2022-12-19T08:30:08;18.97;;;11.20;;
52942;SDS011;38809;53.300;6.614;2022-12-19T08:32:35;14.50;;;10.23;;
52942;SDS011;38809;53.300;6.614;2022-12-19T08:35:01;16.43;;;10.00;;
52942;SDS011;38809;53.300;6.614;2022-12-19T08:37:27;16.37;;;11.00;;
52942;SDS011;38809;53.300;6.614;2022-12-19T08:39:53;16.63;;;10.32;;
52942;SDS011;38809;53.300;6.614;2022-12-19T08:42:18;16.30;;;10.30;;
52942;SDS011;38809;53.300;6.614;2022-12-19T08:44:44;16.03;;;10.37;;
52942;SDS011;38809;53.300;6.614;2022-12-19T08:47:10;17.67;;;11.40;;
52942;SDS011;38809;53.300;6.614;2022-12-19T08:49:35;17.83;;;10.88;;
52942;SDS011;38809;53.300;6.614;2022-12-19T08:52:01;16.87;;;9.97;;
52942;SDS011;38809;53.300;6.614;2022-12-19T08:54:27;15.25;;;9.43;;
52942;SDS011;38809;53.300;6.614;2022-12-19T08:56:52;15.17;;;10.07;;
52942;SDS011;38809;53.300;6.614;2022-12-19T08:59:18;16.13;;;10.17;;
52942;SDS011;38809;53.300;6.614;2022-12-19T09:01:44;14.07;;;9.47;;
52942;SDS011;38809;53.300;6.614;2022-12-19T09:04:10;13.52;;;9.45;;
52942;SDS011;38809;53.300;6.614;2022-12-19T09:06:36;15.30;;;9.90;;
52942;SDS011;38809;53.300;6.614;2022-12-19T09:09:06;14.80;;;10.73;;
52942;SDS011;38809;53.300;6.614;2022-12-19T09:11:31;16.02;;;10.88;;
52942;SDS011;38809;53.300;6.614;2022-12-19T09:13:57;16.10;;;10.80;;
52942;SDS011;38809;53.300;6.614;2022-12-19T09:16:24;19.67;;;12.60;;
52942;SDS011;38809;53.300;6.614;2022-12-19T09:18:53;16.50;;;11.27;;
52942;SDS011;38809;53.300;6.614;2022-12-19T09:21:21;16.15;;;10.70;;
52942;SDS011;38809;53.300;6.614;2022-12-19T09:23:48;18.58;;;12.60;;
52942;SDS011;38809;53.300;6.614;2022-12-19T09:26:19;19.77;;;12.48;;
52942;SDS011;38809;53.300;6.614;2022-12-19T09:28:49;19.13;;;12.60;;
52942;SDS011;38809;53.300;6.614;2022-12-19T09:31:19;18.92;;;12.82;;
52942;SDS011;38809;53.300;6.614;2022-12-19T09:33:46;20.05;;;12.95;;
52942;SDS011;38809;53.300;6.614;2022-12-19T09:36:13;19.05;;;12.82;;
52942;SDS011;38809;53.300;6.614;2022-12-19T09:38:40;18.02;;;12.45;;
52942;SDS011;38809;53.300;6.614;2022-12-19T09:46:54;20.02;;;12.55;;
52942;SDS011;38809;53.300;6.614;2022-12-19T09:49:22;22.58;;;14.43;;
52942;SDS011;38809;53.300;6.614;2022-12-19T09:52:02;19.20;;;12.82;;
52942;SDS011;38809;53.300;6.614;2022-12-19T09:54:35;19.35;;;13.20;;
52942;SDS011;38809;53.300;6.614;2022-12-19T09:57:04;20.85;;;14.65;;
52942;SDS011;38809;53.300;6.614;2022-12-19T09:59:43;21.17;;;14.00;;
52942;SDS011;38809;53.300;6.614;2022-12-19T10:07:49;22.27;;;14.52;;
52942;SDS011;38809;53.300;6.614;2022-12-19T10:10:16;19.95;;;13.55;;
52942;SDS011;38809;53.300;6.614;2022-12-19T10:13:03;25.45;;;14.63;;
52942;SDS011;38809;53.300;6.614;2022-12-19T10:15:45;22.30;;;14.20;;
52942;SDS011;38809;53.300;6.614;2022-12-19T10:21:41;21.33;;;14.90;;
52942;SDS011;38809;53.300;6.614;2022-12-19T10:27:15;20.35;;;14.60;;
52942;SDS011;38809;53.300;6.614;2022-12-19T10:29:50;19.58;;;14.23;;
52942;SDS011;38809;53.300;6.614;2022-12-19T10:35:32;21.67;;;14.57;;
52942;SDS011;38809;53.300;6.614;2022-12-19T10:40:47;21.08;;;14.18;;
52942;SDS011;38809;53.300;6.614;2022-12-19T10:46:12;18.40;;;12.93;;
52942;SDS011;38809;53.300;6.614;2022-12-19T10:49:01;20.92;;;13.63;;
52942;SDS011;38809;53.300;6.614;2022-12-19T10:54:03;23.70;;;14.10;;
52942;SDS011;38809;53.300;6.614;2022-12-19T10:56:29;23.65;;;15.20;;
52942;SDS011;38809;53.300;6.614;2022-12-19T11:03:52;21.15;;;14.88;;
52942;SDS011;38809;53.300;6.614;2022-12-19T11:09:20;20.88;;;13.93;;
52942;SDS011;38809;53.300;6.614;2022-12-19T11:11:46;21.17;;;13.68;;
52942;SDS011;38809;53.300;6.614;2022-12-19T11:14:20;19.90;;;13.75;;
52942;SDS011;38809;53.300;6.614;2022-12-19T11:16:50;17.30;;;11.82;;
52942;SDS011;38809;53.300;6.614;2022-12-19T11:19:19;20.33;;;14.25;;
52942;SDS011;38809;53.300;6.614;2022-12-19T11:21:56;19.80;;;13.77;;
52942;SDS011;38809;53.300;6.614;2022-12-19T11:24:39;21.17;;;13.70;;
52942;SDS011;38809;53.300;6.614;2022-12-19T11:27:29;21.38;;;13.52;;
52942;SDS011;38809;53.300;6.614;2022-12-19T11:32:45;18.33;;;13.98;;
52942;SDS011;38809;53.300;6.614;2022-12-19T11:35:20;19.85;;;13.50;;
52942;SDS011;38809;53.300;6.614;2022-12-19T11:40:37;22.42;;;13.20;;
52942;SDS011;38809;53.300;6.614;2022-12-19T11:48:35;21.75;;;14.32;;
52942;SDS011;38809;53.300;6.614;2022-12-19T11:56:42;14.95;;;9.98;;
52942;SDS011;38809;53.300;6.614;2022-12-19T11:59:12;16.00;;;10.85;;
52942;SDS011;38809;53.300;6.614;2022-12-19T12:01:53;13.77;;;10.13;;
52942;SDS011;38809;53.300;6.614;2022-12-19T12:07:13;14.77;;;11.10;;
52942;SDS011;38809;53.300;6.614;2022-12-19T12:09:49;16.52;;;12.07;;
52942;SDS011;38809;53.300;6.614;2022-12-19T12:15:10;14.93;;;10.93;;
52942;SDS011;38809;53.300;6.614;2022-12-19T12:20:36;14.60;;;11.35;;
52942;SDS011;38809;53.300;6.614;2022-12-19T12:34:54;14.05;;;11.27;;
52942;SDS011;38809;53.300;6.614;2022-12-19T12:40:02;12.57;;;9.18;;
52942;SDS011;38809;53.300;6.614;2022-12-19T12:45:22;11.73;;;8.70;;
52942;SDS011;38809;53.300;6.614;2022-12-19T12:48:02;12.00;;;8.80;;
52942;SDS011;38809;53.300;6.614;2022-12-19T12:50:42;11.85;;;9.15;;
52942;SDS011;38809;53.300;6.614;2022-12-19T12:53:11;14.18;;;9.35;;
52942;SDS011;38809;53.300;6.614;2022-12-19T12:55:41;13.70;;;8.45;;
52942;SDS011;38809;53.300;6.614;2022-12-19T13:01:09;9.35;;;7.00;;
52942;SDS011;38809;53.300;6.614;2022-12-19T13:03:40;12.27;;;8.27;;
52942;SDS011;38809;53.300;6.614;2022-12-19T13:14:44;12.48;;;8.93;;
52942;SDS011;38809;53.300;6.614;2022-12-19T13:19:52;12.00;;;8.60;;
52942;SDS011;38809;53.300;6.614;2022-12-19T13:22:42;9.60;;;7.22;;
52942;SDS011;38809;53.300;6.614;2022-12-19T13:30:27;12.27;;;8.30;;
52942;SDS011;38809;53.300;6.614;2022-12-19T13:40:19;11.00;;;7.85;;
52942;SDS011;38809;53.300;6.614;2022-12-19T13:45:52;9.30;;;7.05;;
52942;SDS011;38809;53.300;6.614;2022-12-19T13:51:11;10.07;;;7.28;;
52942;SDS011;38809;53.300;6.614;2022-12-19T13:53:38;11.95;;;8.10;;
52942;SDS011;38809;53.300;6.614;2022-12-19T13:58:46;13.38;;;9.13;;
52942;SDS011;38809;53.300;6.614;2022-12-19T14:01:35;10.85;;;7.03;;
52942;SDS011;38809;53.300;6.614;2022-12-19T14:04:05;9.52;;;7.47;;
52942;SDS011;38809;53.300;6.614;2022-12-19T14:07:20;9.10;;;6.80;;
52942;SDS011;38809;53.300;6.614;2022-12-19T14:09:30;10.23;;;6.88;;
52942;SDS011;38809;53.300;6.614;2022-12-19T14:12:02;11.85;;;7.38;;
52942;SDS011;38809;53.300;6.614;2022-12-19T14:14:30;11.13;;;7.82;;
52942;SDS011;38809;53.300;6.614;2022-12-19T14:17:19;11.18;;;7.43;;
52942;SDS011;38809;53.300;6.614;2022-12-19T14:19:50;11.55;;;7.78;;
52942;SDS011;38809;53.300;6.614;2022-12-19T14:24:52;12.33;;;9.10;;
52942;SDS011;38809;53.300;6.614;2022-12-19T14:27:26;11.68;;;8.40;;
52942;SDS011;38809;53.300;6.614;2022-12-19T14:30:02;10.82;;;8.13;;
52942;SDS011;38809;53.300;6.614;2022-12-19T14:32:31;11.25;;;8.13;;
52942;SDS011;38809;53.300;6.614;2022-12-19T14:35:04;10.73;;;8.57;;
52942;SDS011;38809;53.300;6.614;2022-12-19T14:37:33;13.50;;;9.48;;
52942;SDS011;38809;53.300;6.614;2022-12-19T14:40:05;14.85;;;8.80;;
52942;SDS011;38809;53.300;6.614;2022-12-19T14:42:41;12.63;;;9.48;;
52942;SDS011;38809;53.300;6.614;2022-12-19T14:45:36;13.52;;;9.23;;
52942;SDS011;38809;53.300;6.614;2022-12-19T14:53:34;11.63;;;8.00;;
52942;SDS011;38809;53.300;6.614;2022-12-19T14:56:02;11.65;;;8.27;;
52942;SDS011;38809;53.300;6.614;2022-12-19T14:58:37;11.93;;;8.93;;
52942;SDS011;38809;53.300;6.614;2022-12-19T15:01:04;9.70;;;7.45;;
52942;SDS011;38809;53.300;6.614;2022-12-19T15:03:46;10.45;;;8.52;;
52942;SDS011;38809;53.300;6.614;2022-12-19T15:06:38;10.52;;;7.65;;
52942;SDS011;38809;53.300;6.614;2022-12-19T15:09:10;10.82;;;7.40;;
52942;SDS011;38809;53.300;6.614;2022-12-19T15:11:45;10.98;;;7.70;;
52942;SDS011;38809;53.300;6.614;2022-12-19T15:14:43;11.05;;;7.82;;
52942;SDS011;38809;53.300;6.614;2022-12-19T15:17:16;10.98;;;7.55;;
52942;SDS011;38809;53.300;6.614;2022-12-19T15:19:43;9.95;;;7.63;;
52942;SDS011;38809;53.300;6.614;2022-12-19T15:22:08;8.60;;;6.30;;
52942;SDS011;38809;53.300;6.614;2022-12-19T15:24:34;10.27;;;7.38;;
52942;SDS011;38809;53.300;6.614;2022-12-19T15:27:00;12.30;;;8.43;;
52942;SDS011;38809;53.300;6.614;2022-12-19T15:29:26;11.57;;;7.73;;
52942;SDS011;38809;53.300;6.614;2022-12-19T15:31:52;9.48;;;6.38;;
52942;SDS011;38809;53.300;6.614;2022-12-19T15:34:25;10.73;;;7.60;;
52942;SDS011;38809;53.300;6.614;2022-12-19T15:36:53;11.15;;;7.82;;
52942;SDS011;38809;53.300;6.614;2022-12-19T15:39:19;9.70;;;7.22;;
52942;SDS011;38809;53.300;6.614;2022-12-19T15:41:46;12.27;;;7.90;;
52942;SDS011;38809;53.300;6.614;2022-12-19T15:44:15;11.20;;;7.55;;
52942;SDS011;38809;53.300;6.614;2022-12-19T15:46:54;9.13;;;7.32;;
52942;SDS011;38809;53.300;6.614;2022-12-19T15:49:20;10.68;;;8.32;;
52942;SDS011;38809;53.300;6.614;2022-12-19T15:54:12;10.07;;;6.78;;
52942;SDS011;38809;53.300;6.614;2022-12-19T15:56:42;8.70;;;6.80;;
52942;SDS011;38809;53.300;6.614;2022-12-19T15:59:27;9.30;;;7.30;;
52942;SDS011;38809;53.300;6.614;2022-12-19T16:01:54;9.80;;;7.07;;
52942;SDS011;38809;53.300;6.614;2022-12-19T16:04:24;9.38;;;6.82;;
52942;SDS011;38809;53.300;6.614;2022-12-19T16:06:50;11.32;;;7.18;;
52942;SDS011;38809;53.300;6.614;2022-12-19T16:09:18;9.80;;;7.85;;
52942;SDS011;38809;53.300;6.614;2022-12-19T16:11:46;9.80;;;7.50;;
52942;SDS011;38809;53.300;6.614;2022-12-19T16:14:13;11.10;;;8.32;;
52942;SDS011;38809;53.300;6.614;2022-12-19T16:16:39;12.10;;;7.85;;
52942;SDS011;38809;53.300;6.614;2022-12-19T16:19:20;12.93;;;8.63;;
52942;SDS011;38809;53.300;6.614;2022-12-19T16:21:48;11.07;;;8.32;;
52942;SDS011;38809;53.300;6.614;2022-12-19T16:24:14;11.40;;;8.52;;
52942;SDS011;38809;53.300;6.614;2022-12-19T16:26:39;13.97;;;9.27;;
52942;SDS011;38809;53.300;6.614;2022-12-19T16:29:09;12.43;;;8.53;;
52942;SDS011;38809;53.300;6.614;2022-12-19T16:31:44;14.98;;;9.63;;
52942;SDS011;38809;53.300;6.614;2022-12-19T16:34:12;12.55;;;9.13;;
52942;SDS011;38809;53.300;6.614;2022-12-19T16:36:40;13.32;;;9.27;;
52942;SDS011;38809;53.300;6.614;2022-12-19T16:39:07;12.55;;;9.43;;
52942;SDS011;38809;53.300;6.614;2022-12-19T16:41:33;11.93;;;9.00;;
52942;SDS011;38809;53.300;6.614;2022-12-19T16:44:00;13.00;;;9.00;;
52942;SDS011;38809;53.300;6.614;2022-12-19T16:46:25;13.65;;;10.30;;
52942;SDS011;38809;53.300;6.614;2022-12-19T16:48:57;13.32;;;9.95;;
52942;SDS011;38809;53.300;6.614;2022-12-19T16:51:24;13.68;;;9.75;;
52942;SDS011;38809;53.300;6.614;2022-12-19T16:53:52;13.00;;;9.20;;
52942;SDS011;38809;53.300;6.614;2022-12-19T17:01:48;13.30;;;10.52;;
52942;SDS011;38809;53.300;6.614;2022-12-19T17:04:16;15.35;;;10.27;;
52942;SDS011;38809;53.300;6.614;2022-12-19T17:06:47;13.23;;;9.90;;
52942;SDS011;38809;53.300;6.614;2022-12-19T17:09:14;12.43;;;10.00;;
52942;SDS011;38809;53.300;6.614;2022-12-19T17:11:44;13.60;;;10.15;;
52942;SDS011;38809;53.300;6.614;2022-12-19T17:14:16;11.82;;;9.82;;
52942;SDS011;38809;53.300;6.614;2022-12-19T17:16:44;14.60;;;10.13;;
52942;SDS011;38809;53.300;6.614;2022-12-19T17:19:23;13.30;;;10.75;;
52942;SDS011;38809;53.300;6.614;2022-12-19T17:22:00;12.85;;;10.00;;
52942;SDS011;38809;53.300;6.614;2022-12-19T17:24:26;13.88;;;10.43;;